Azalia, Michigan
Current Conditions -  °F | °C
As of 6:14 PM on Monday 22 Dec 2014 (Local Time) from KTTF Reporting Station
Broken Clouds Broken Clouds  
Wind Chill: 29°   Ceiling: 6000
Heat Index: 36°   Visibility: 10mi
Dew Point: 30°   Wind: 8mph
Humidity: 81%   Direction: 80°E
Pressure: 29.9"   Gusts: NA
Location:  42.02°N, 83.67°W
Report Text: KTTF 222314Z AUTO 08007KT 10SM BKN060 BKN070 02/M01 A2990 RMK AO2
Loading
Personal Weather Stations






























Interactive Weather Map New forecast layout! Learn more

10-Day Weather Forecast

Advertisements
Track Severe Weather on mobile